Terminal Aerodrome Forecast
Issued by NWS Grand Junction, CO

Home | Current Version | Previous Version | Text Only | Print | Product List | Glossary On
Versions: 1 2 3 4 5 6 7 8 9 10 11 12 13
000
FTUS45 KGJT 250313 AAA
TAFGJT
TAF AMD
KGJT 250313Z 2503/2524 23008KT P6SM FEW140 SCT250
     FM250500 12008KT P6SM SCT250
     FM251400 16012KT P6SM FEW250
     FM251600 21010KT P6SM FEW250
     FM251800 25008KT P6SM FEW250=

USA.gov is the U.S. government's official web portal to all federal, state and local government web resources and services.